createdAt,value
2023-01-25T00:01:05.260Z,93935.28
2023-01-25T00:02:36.857Z,93933.66
2023-01-25T00:04:08.529Z,93932.28
2023-01-25T00:05:40.049Z,93936.00
2023-01-25T00:07:11.718Z,93943.66
2023-01-25T00:08:43.283Z,93937.75
2023-01-25T00:10:15.128Z,93939.38
2023-01-25T00:11:46.903Z,93939.38
2023-01-25T00:13:18.510Z,93937.25
2023-01-25T00:14:50.038Z,93943.38
2023-01-25T00:16:21.772Z,93948.69
2023-01-25T00:17:53.411Z,93939.69
2023-01-25T00:19:24.873Z,93934.38
2023-01-25T00:20:56.420Z,93939.44
2023-01-25T00:22:27.963Z,93940.84
2023-01-25T00:23:59.694Z,93939.78
2023-01-25T00:25:31.167Z,93933.09
2023-01-25T00:27:02.953Z,93937.59
2023-01-25T00:28:34.599Z,93939.22
2023-01-25T00:30:06.499Z,93932.53
2023-01-25T00:31:41.432Z,93937.03
2023-01-25T00:33:16.103Z,93930.34
2023-01-25T00:34:48.227Z,93936.22
2023-01-25T00:36:38.256Z,93932.53
2023-01-25T00:38:17.057Z,93937.03
2023-01-25T00:39:48.714Z,93934.94
2023-01-25T00:41:20.487Z,93940.13
2023-01-25T00:42:52.010Z,93936.97
2023-01-25T00:44:23.502Z,93937.53
2023-01-25T00:46:00.603Z,93938.94
2023-01-25T00:47:32.233Z,93935.69
2023-01-25T00:49:03.833Z,93942.06
2023-01-25T00:50:36.991Z,93940.44
2023-01-25T00:52:08.641Z,93938.50
2023-01-25T00:53:40.184Z,93938.66
2023-01-25T00:55:12.320Z,93931.88
2023-01-25T00:56:43.985Z,93933.63
2023-01-25T00:58:15.578Z,93928.78
2023-01-25T00:59:47.864Z,93931.09
2023-01-25T01:01:19.472Z,93929.16
2023-01-25T01:02:51.096Z,93923.75
2023-01-25T01:04:25.645Z,93926.88
2023-01-25T01:06:01.576Z,93927.34
2023-01-25T01:07:33.035Z,93929.19
2023-01-25T01:09:05.271Z,93923.88
2023-01-25T01:10:36.860Z,93929.53
2023-01-25T01:12:09.055Z,93928.59
2023-01-25T01:13:40.827Z,93918.53
2023-01-25T01:15:12.444Z,93918.22
2023-01-25T01:16:44.197Z,93913.13
2023-01-25T01:18:15.757Z,93912.66
2023-01-25T01:19:47.370Z,93919.00
2023-01-25T01:21:18.909Z,93915.44
2023-01-25T01:22:52.057Z,93916.94
2023-01-25T01:24:23.732Z,93912.44
2023-01-25T01:25:55.268Z,93917.28
2023-01-25T01:27:26.743Z,93922.53
2023-01-25T01:28:58.800Z,93925.88
2023-01-25T01:30:30.294Z,93925.06
2023-01-25T01:32:02.095Z,93935.13
2023-01-25T01:33:35.331Z,93927.63
2023-01-25T01:35:08.136Z,93923.44
2023-01-25T01:36:39.986Z,93913.06
2023-01-25T01:38:11.480Z,93920.44
2023-01-25T01:39:43.033Z,93918.88
2023-01-25T01:41:15.116Z,93910.41
2023-01-25T01:42:56.703Z,93916.75
2023-01-25T01:44:44.672Z,93909.81
2023-01-25T01:46:16.384Z,93911.94
2023-01-25T01:47:48.896Z,93907.16
2023-01-25T01:49:22.315Z,93896.31
2023-01-25T01:50:54.154Z,93894.38
2023-01-25T01:52:28.264Z,93897.50
2023-01-25T01:54:05.603Z,93892.53
2023-01-25T01:55:37.721Z,93890.19
2023-01-25T01:57:14.505Z,93887.31
2023-01-25T01:58:46.102Z,93888.91
2023-01-25T02:00:18.615Z,93885.91
2023-01-25T02:01:50.236Z,93897.28
2023-01-25T02:03:21.908Z,93882.59
2023-01-25T02:04:54.044Z,93896.47
2023-01-25T02:06:27.551Z,93888.03
2023-01-25T02:07:59.211Z,93892.31
2023-01-25T02:09:30.818Z,93890.75
2023-01-25T02:11:02.602Z,93889.72
2023-01-25T02:12:34.215Z,93898.03
2023-01-25T02:14:05.903Z,93895.97
2023-01-25T02:15:38.773Z,93893.63
2023-01-25T02:17:10.524Z,93892.00
2023-01-25T02:18:42.032Z,93891.69
2023-01-25T02:20:16.661Z,93897.13
2023-01-25T02:21:48.110Z,93885.38
2023-01-25T02:23:31.490Z,93895.88
2023-01-25T02:25:08.059Z,93899.59
2023-01-25T02:26:39.948Z,93888.97
2023-01-25T02:28:26.167Z,93891.97
2023-01-25T02:29:57.879Z,93894.84
2023-01-25T02:31:29.503Z,93903.03
2023-01-25T02:33:01.113Z,93900.63
2023-01-25T02:34:32.915Z,93901.13
2023-01-25T02:36:07.484Z,93905.28
2023-01-25T02:37:39.188Z,93911.03
2023-01-25T02:39:13.504Z,93906.19
2023-01-25T02:40:46.437Z,93907.25
2023-01-25T02:42:18.097Z,93904.59
2023-01-25T02:43:49.582Z,93901.94
2023-01-25T02:45:21.151Z,93904.59
2023-01-25T02:46:53.145Z,93901.94
2023-01-25T02:48:24.819Z,93902.72
2023-01-25T02:49:56.302Z,93907.81
2023-01-25T02:51:29.057Z,93908.97
2023-01-25T02:53:00.663Z,93899.97
2023-01-25T02:54:32.172Z,93901.13
2023-01-25T02:56:03.838Z,93895.31
2023-01-25T02:57:35.425Z,93903.28
2023-01-25T02:59:07.579Z,93902.25
2023-01-25T03:00:39.241Z,93903.28
2023-01-25T03:02:10.814Z,93903.78
2023-01-25T03:03:42.698Z,93905.34
2023-01-25T03:05:14.357Z,93908.28
2023-01-25T03:06:46.338Z,93910.66
2023-01-25T03:08:17.790Z,93913.66
2023-01-25T03:09:49.305Z,93913.09
2023-01-25T03:11:21.124Z,93911.25
2023-01-25T03:12:52.795Z,93904.31
2023-01-25T03:14:24.333Z,93908.59
2023-01-25T03:15:59.749Z,93912.28
2023-01-25T03:17:31.475Z,93905.94
2023-01-25T03:19:05.171Z,93896.47
2023-01-25T03:20:36.664Z,93898.66
2023-01-25T03:22:12.232Z,93890.19
2023-01-25T03:23:48.426Z,93890.44
2023-01-25T03:25:20.376Z,93882.94
2023-01-25T03:27:11.025Z,93881.94
2023-01-25T03:28:42.702Z,93896.72
2023-01-25T03:30:14.335Z,93885.22
2023-01-25T03:31:45.978Z,93886.25
2023-01-25T03:33:17.621Z,93889.13
2023-01-25T03:34:49.256Z,93888.34
2023-01-25T03:36:20.768Z,93888.34
2023-01-25T03:37:52.398Z,93879.56
2023-01-25T03:39:24.044Z,93883.81
2023-01-25T03:40:55.774Z,93878.53
2023-01-25T03:42:27.332Z,93881.41
2023-01-25T03:43:58.987Z,93876.31
2023-01-25T03:45:30.755Z,93876.31
2023-01-25T03:47:02.540Z,93875.53
2023-01-25T03:48:34.233Z,93877.38
2023-01-25T03:50:06.152Z,93885.09
2023-01-25T03:51:37.777Z,93881.41
2023-01-25T03:53:20.193Z,93882.78
2023-01-25T03:54:51.757Z,93885.22
2023-01-25T03:56:23.319Z,93887.16
2023-01-25T03:57:54.839Z,93889.44
2023-01-25T03:59:26.367Z,93885.75
2023-01-25T04:00:58.487Z,93884.41
2023-01-25T04:02:30.162Z,93884.28
2023-01-25T04:04:01.764Z,93881.28
2023-01-25T04:05:33.333Z,93881.28
2023-01-25T04:07:04.990Z,93881.56
2023-01-25T04:08:36.603Z,93887.63
2023-01-25T04:10:08.589Z,93880.25
2023-01-25T04:11:40.367Z,93881.06
2023-01-25T04:13:11.915Z,93877.94
2023-01-25T04:14:45.057Z,93884.63
2023-01-25T04:16:16.652Z,93880.13
2023-01-25T04:17:48.785Z,93886.03
2023-01-25T04:19:20.446Z,93887.88
2023-01-25T04:20:55.208Z,93881.75
2023-01-25T04:22:26.718Z,93888.69
2023-01-25T04:23:58.613Z,93885.91
2023-01-25T04:25:30.132Z,93885.56
2023-01-25T04:27:01.641Z,93888.94
2023-01-25T04:28:33.424Z,93889.50
2023-01-25T04:30:05.438Z,93886.38
2023-01-25T04:31:37.128Z,93892.41
2023-01-25T04:33:08.765Z,93894.25
2023-01-25T04:34:40.361Z,93894.81
2023-01-25T04:36:11.832Z,93892.94
2023-01-25T04:37:43.376Z,93884.75
2023-01-25T04:39:15.041Z,93892.41
2023-01-25T04:40:46.625Z,93893.31
2023-01-25T04:42:18.185Z,93893.00
2023-01-25T04:43:49.835Z,93896.91
2023-01-25T04:45:21.518Z,93897.16
2023-01-25T04:46:52.980Z,93889.19
2023-01-25T04:48:24.667Z,93889.53
2023-01-25T04:49:56.142Z,93882.84
2023-01-25T04:51:27.728Z,93890.22
2023-01-25T04:52:59.197Z,93894.50
2023-01-25T04:54:30.772Z,93897.38
2023-01-25T04:56:02.516Z,93897.38
2023-01-25T04:57:34.215Z,93905.91
2023-01-25T04:59:05.754Z,93900.97
2023-01-25T05:00:37.210Z,93901.84
2023-01-25T05:02:08.801Z,93903.56
2023-01-25T05:03:40.487Z,93900.22
2023-01-25T05:05:12.182Z,93899.53
2023-01-25T05:06:43.867Z,93901.03
2023-01-25T05:08:15.481Z,93903.34
2023-01-25T05:09:47.138Z,93904.06
2023-01-25T05:11:18.783Z,93904.50
2023-01-25T05:12:50.275Z,93902.09
2023-01-25T05:14:22.028Z,93905.56
2023-01-25T05:15:53.748Z,93900.47
2023-01-25T05:17:25.425Z,93907.16
2023-01-25T05:18:56.998Z,93900.81
2023-01-25T05:20:28.564Z,93900.81
2023-01-25T05:22:00.589Z,93903.25
2023-01-25T05:23:32.214Z,93904.63
2023-01-25T05:25:04.076Z,93909.69
2023-01-25T05:26:54.368Z,93898.13
2023-01-25T05:28:26.135Z,93896.88
2023-01-25T05:29:57.858Z,93892.38
2023-01-25T05:31:29.469Z,93902.19
2023-01-25T05:33:01.000Z,93897.34
2023-01-25T05:34:32.870Z,93908.19
2023-01-25T05:36:04.511Z,93907.59
2023-01-25T05:37:36.093Z,93903.34
2023-01-25T05:39:08.854Z,93911.28
2023-01-25T05:40:40.505Z,93902.53
2023-01-25T05:42:13.026Z,93905.53
2023-01-25T05:43:44.605Z,93894.00
2023-01-25T05:45:16.296Z,93891.06
2023-01-25T05:46:47.929Z,93891.88
2023-01-25T05:48:20.042Z,93894.44
2023-01-25T05:49:51.722Z,93899.41
2023-01-25T05:51:24.901Z,93901.50
2023-01-25T05:52:56.468Z,93906.56
2023-01-25T05:54:28.083Z,93897.56
2023-01-25T05:56:08.724Z,93904.84
2023-01-25T05:57:40.424Z,93908.75
2023-01-25T05:59:12.104Z,93900.78
2023-01-25T06:00:43.616Z,93902.28
2023-01-25T06:02:16.609Z,93893.88
2023-01-25T06:03:48.247Z,93886.94
2023-01-25T06:05:19.900Z,93887.63
2023-01-25T06:06:51.382Z,93888.34
2023-01-25T06:08:22.980Z,93891.00
2023-01-25T06:09:54.589Z,93884.31
2023-01-25T06:11:26.225Z,93886.75
2023-01-25T06:12:58.606Z,93894.25
2023-01-25T06:14:30.088Z,93899.88
2023-01-25T06:16:01.832Z,93894.09
2023-01-25T06:17:42.412Z,93904.50
2023-01-25T06:19:31.586Z,93907.94
2023-01-25T06:22:54.573Z,93910.16
2023-01-25T06:24:26.482Z,93909.00
2023-01-25T06:26:01.628Z,93902.66
2023-01-25T06:27:33.154Z,93909.00
2023-01-25T06:29:05.465Z,93914.56
2023-01-25T06:30:36.988Z,93913.50
2023-01-25T06:32:08.743Z,93916.97
2023-01-25T06:33:40.793Z,93913.50
2023-01-25T06:35:12.336Z,93918.00
2023-01-25T06:36:43.811Z,93914.56
2023-01-25T06:38:15.316Z,93908.56
2023-01-25T06:39:47.028Z,93915.00
2023-01-25T06:41:18.785Z,93916.28
2023-01-25T06:42:50.400Z,93913.28
2023-01-25T06:44:21.956Z,93915.00
2023-01-25T06:45:53.491Z,93908.56
2023-01-25T06:47:25.227Z,93905.78
2023-01-25T06:48:56.773Z,93918.25
2023-01-25T06:50:28.494Z,93910.88
2023-01-25T06:52:01.563Z,93920.00
2023-01-25T06:53:34.020Z,93907.84
2023-01-25T06:55:07.742Z,93914.56
2023-01-25T06:56:39.605Z,93913.16
2023-01-25T06:58:11.052Z,93914.78
2023-01-25T06:59:42.636Z,93915.59
2023-01-25T07:01:20.381Z,93910.84
2023-01-25T07:02:52.140Z,93914.91
2023-01-25T07:04:23.936Z,93911.44
2023-01-25T07:05:59.198Z,93911.44
2023-01-25T07:07:30.781Z,93903.69
2023-01-25T07:09:03.434Z,93906.59
2023-01-25T07:10:35.038Z,93905.31
2023-01-25T07:12:06.778Z,93906.22
2023-01-25T07:13:38.369Z,93909.22
2023-01-25T07:15:10.563Z,93903.81
2023-01-25T07:16:42.344Z,93905.28
2023-01-25T07:18:16.585Z,93901.91
2023-01-25T07:19:48.442Z,93897.72
2023-01-25T07:21:21.487Z,93901.06
2023-01-25T07:22:53.341Z,93902.13
2023-01-25T07:24:27.416Z,93893.41
2023-01-25T07:25:59.104Z,93897.81
2023-01-25T07:27:32.858Z,93903.66
2023-01-25T07:29:04.329Z,93898.34
2023-01-25T07:30:35.922Z,93911.16
2023-01-25T07:32:07.467Z,93898.47
2023-01-25T07:33:39.102Z,93909.44
2023-01-25T07:35:10.926Z,93910.25
2023-01-25T07:36:44.031Z,93910.25
2023-01-25T07:38:15.600Z,93907.81
2023-01-25T07:39:50.557Z,93913.34
2023-01-25T07:41:22.523Z,93911.75
2023-01-25T07:42:54.277Z,93915.44
2023-01-25T07:44:26.011Z,93913.34
2023-01-25T07:46:03.345Z,93924.44
2023-01-25T07:47:37.097Z,93931.75
2023-01-25T07:49:09.305Z,93924.84
2023-01-25T07:50:41.660Z,93931.53
2023-01-25T07:52:13.245Z,93924.69
2023-01-25T07:53:44.946Z,93926.66
2023-01-25T07:55:16.643Z,93920.88
2023-01-25T07:56:49.703Z,93918.75
2023-01-25T07:58:21.217Z,93925.78
2023-01-25T07:59:52.811Z,93915.97
2023-01-25T08:01:25.046Z,93920.59
2023-01-25T08:02:56.535Z,93920.91
2023-01-25T08:04:28.128Z,93918.56
2023-01-25T08:05:59.950Z,93912.00
2023-01-25T08:07:31.545Z,93910.69
2023-01-25T08:09:04.069Z,93913.91
2023-01-25T08:10:35.731Z,93908.69
2023-01-25T08:12:08.743Z,93914.00
2023-01-25T08:13:40.857Z,93909.16
2023-01-25T08:15:13.038Z,93914.47
2023-01-25T08:16:44.648Z,93915.13
2023-01-25T08:18:16.574Z,93915.13
2023-01-25T08:19:48.378Z,93916.09
2023-01-25T08:21:20.079Z,93916.69
2023-01-25T08:22:52.585Z,93920.44
2023-01-25T08:24:25.522Z,93910.38
2023-01-25T08:26:01.332Z,93920.09
2023-01-25T08:27:33.431Z,93917.03
2023-01-25T08:29:05.730Z,93915.00
2023-01-25T08:30:41.192Z,93909.53
2023-01-25T08:32:17.782Z,93909.59
2023-01-25T08:36:01.579Z,93902.44
2023-01-25T08:37:59.627Z,93907.28
2023-01-25T08:39:31.486Z,93909.06
2023-01-25T08:41:06.759Z,93896.38
2023-01-25T08:42:38.651Z,93899.13
2023-01-25T08:44:23.350Z,93896.00
2023-01-25T08:46:00.956Z,93897.59
2023-01-25T08:47:32.569Z,93901.38
2023-01-25T08:49:04.940Z,93896.03
2023-01-25T08:50:36.535Z,93898.72
2023-01-25T08:52:08.483Z,93891.06
2023-01-25T08:53:40.356Z,93901.50
2023-01-25T08:55:12.443Z,93886.44
2023-01-25T08:58:33.712Z,93892.81
2023-01-25T09:00:32.585Z,93885.16
2023-01-25T09:02:04.265Z,93883.03
2023-01-25T09:03:36.981Z,93880.91
2023-01-25T09:05:09.215Z,93880.75
2023-01-25T09:06:41.005Z,93878.47
2023-01-25T09:08:22.348Z,93880.13
2023-01-25T09:09:53.915Z,93884.97
2023-01-25T09:11:31.554Z,93879.41
2023-01-25T09:13:08.937Z,93878.34
2023-01-25T09:16:45.233Z,93882.63
2023-01-25T09:18:17.952Z,93871.97
2023-01-25T09:21:26.320Z,93871.25
2023-01-25T09:22:58.012Z,93871.81
2023-01-25T09:24:29.855Z,93866.56
2023-01-25T09:26:02.971Z,93873.75
2023-01-25T09:27:35.236Z,93869.50
2023-01-25T09:29:08.298Z,93859.72
2023-01-25T09:30:47.604Z,93865.13
2023-01-25T09:32:24.548Z,93858.53
2023-01-25T09:33:58.962Z,93853.56
2023-01-25T09:35:31.466Z,93847.44
2023-01-25T09:37:06.540Z,93847.50
2023-01-25T09:38:38.751Z,93843.00
2023-01-25T09:40:24.240Z,93835.88
2023-01-25T09:42:15.625Z,93828.97
2023-01-25T09:43:47.371Z,93836.41
2023-01-25T09:45:27.745Z,93829.72
2023-01-25T09:47:03.433Z,93833.47
2023-01-25T09:48:40.090Z,93825.00
2023-01-25T09:50:15.213Z,93818.34
2023-01-25T09:51:49.431Z,93826.34
2023-01-25T09:53:25.428Z,93827.47
2023-01-25T09:54:57.653Z,93823.78
2023-01-25T09:56:30.652Z,93820.81
2023-01-25T09:58:02.935Z,93823.19
2023-01-25T09:59:34.693Z,93825.47
2023-01-25T10:01:37.453Z,93818.50
2023-01-25T10:03:29.501Z,93815.84
2023-01-25T10:05:04.109Z,93817.16
2023-01-25T10:06:46.059Z,93810.25
2023-01-25T10:08:33.889Z,93805.75
2023-01-25T10:10:07.338Z,93810.09
2023-01-25T10:11:48.202Z,93798.91
2023-01-25T10:13:20.459Z,93800.81
2023-01-25T10:14:52.412Z,93792.06
2023-01-25T10:16:26.999Z,93787.06
2023-01-25T10:17:59.596Z,93792.47
2023-01-25T10:19:34.286Z,93789.88
2023-01-25T10:21:35.040Z,93788.34
2023-01-25T10:23:18.976Z,93788.34
2023-01-25T10:25:12.671Z,93792.59
2023-01-25T10:26:44.899Z,93787.50
2023-01-25T10:28:25.626Z,93784.53
2023-01-25T10:29:58.217Z,93783.09
2023-01-25T10:31:35.417Z,93783.81
2023-01-25T10:33:17.670Z,93779.00
2023-01-25T10:34:56.837Z,93776.06
2023-01-25T10:36:40.595Z,93780.28
2023-01-25T10:38:38.733Z,93778.19
2023-01-25T10:40:22.561Z,93775.84
2023-01-25T10:41:58.522Z,93779.88
2023-01-25T10:43:30.668Z,93775.09
2023-01-25T10:45:02.539Z,93775.44
2023-01-25T10:46:34.459Z,93768.50
2023-01-25T10:48:09.888Z,93765.31
2023-01-25T10:49:47.660Z,93767.72
2023-01-25T10:51:29.366Z,93768.22
2023-01-25T10:53:01.645Z,93766.63
2023-01-25T10:54:33.703Z,93765.56
2023-01-25T10:56:21.177Z,93764.75
2023-01-25T10:57:59.483Z,93758.38
2023-01-25T10:59:31.704Z,93755.50
2023-01-25T11:01:09.411Z,93751.53
2023-01-25T11:02:45.128Z,93746.50
2023-01-25T11:04:22.935Z,93742.81
2023-01-25T11:05:55.356Z,93741.28
2023-01-25T11:07:27.764Z,93735.41
2023-01-25T11:08:59.429Z,93722.88
2023-01-25T11:10:34.348Z,93728.50
2023-01-25T11:12:13.764Z,93726.41
2023-01-25T11:13:45.692Z,93722.94
2023-01-25T11:15:24.136Z,93723.75
2023-01-25T11:16:56.120Z,93720.56
2023-01-25T11:18:29.644Z,93707.50
2023-01-25T11:20:12.448Z,93710.97
2023-01-25T11:21:51.883Z,93711.53
2023-01-25T11:23:24.839Z,93709.38
2023-01-25T11:24:56.801Z,93704.03
2023-01-25T11:26:28.506Z,93694.94
2023-01-25T11:28:18.854Z,93695.22
2023-01-25T11:30:06.231Z,93689.09
2023-01-25T11:31:38.410Z,93686.16
2023-01-25T11:33:13.338Z,93680.03
2023-01-25T11:34:45.335Z,93670.94
2023-01-25T11:36:20.188Z,93681.63
2023-01-25T11:38:06.682Z,93678.66
2023-01-25T11:39:53.208Z,93670.38
2023-01-25T11:41:31.167Z,93665.59
2023-01-25T11:43:05.648Z,93669.06
2023-01-25T11:44:51.996Z,93665.84
2023-01-25T11:46:26.449Z,93667.22
2023-01-25T11:48:10.206Z,93659.69
2023-01-25T11:49:48.404Z,93657.84
2023-01-25T11:51:26.111Z,93659.19
2023-01-25T11:53:03.802Z,93661.31
2023-01-25T11:54:47.320Z,93664.78
2023-01-25T11:56:38.139Z,93655.44
2023-01-25T11:58:24.698Z,93655.94
2023-01-25T12:00:02.417Z,93648.19
2023-01-25T12:01:52.310Z,93644.16
2023-01-25T12:03:34.571Z,93639.09
2023-01-25T12:05:25.127Z,93637.22
2023-01-25T12:06:58.836Z,93643.38
2023-01-25T12:08:43.717Z,93642.81
2023-01-25T12:10:21.095Z,93640.09
2023-01-25T12:12:11.452Z,93636.59
2023-01-25T12:13:43.279Z,93642.44
2023-01-25T12:15:33.757Z,93652.56
2023-01-25T12:17:12.149Z,93646.41
2023-01-25T12:18:46.466Z,93633.84
2023-01-25T12:20:36.752Z,93642.63
2023-01-25T12:22:17.896Z,93630.59
2023-01-25T12:23:52.815Z,93632.69
2023-01-25T12:25:24.503Z,93628.72
2023-01-25T12:27:08.180Z,93633.81
2023-01-25T12:28:43.548Z,93629.00
2023-01-25T12:30:38.154Z,93628.47
2023-01-25T12:32:19.005Z,93631.69
2023-01-25T12:33:56.802Z,93624.72
2023-01-25T12:35:32.069Z,93630.03
2023-01-25T12:37:06.097Z,93634.56
2023-01-25T12:38:37.593Z,93620.38
2023-01-25T12:40:47.873Z,93626.78
2023-01-25T12:42:24.472Z,93618.50
2023-01-25T12:44:01.765Z,93615.56
2023-01-25T12:45:34.553Z,93620.13
2023-01-25T12:47:18.868Z,93621.97
2023-01-25T12:48:50.897Z,93618.25
2023-01-25T12:50:33.488Z,93615.84
2023-01-25T12:52:06.663Z,93612.63
2023-01-25T12:53:42.804Z,93610.75
2023-01-25T12:55:14.946Z,93602.22
2023-01-25T12:56:48.777Z,93603.81
2023-01-25T12:58:36.397Z,93608.09
2023-01-25T13:00:20.824Z,93603.84
2023-01-25T13:02:00.259Z,93603.84
2023-01-25T13:03:44.101Z,93607.84
2023-01-25T13:05:18.809Z,93596.88
2023-01-25T13:07:09.451Z,93606.47
2023-01-25T13:08:49.858Z,93600.03
2023-01-25T13:10:24.397Z,93604.53
2023-01-25T13:11:56.181Z,93600.25
2023-01-25T13:13:28.207Z,93601.06
2023-01-25T13:14:59.803Z,93599.19
2023-01-25T13:16:32.582Z,93603.44
2023-01-25T13:18:27.154Z,93609.53
2023-01-25T13:19:59.558Z,93614.28
2023-01-25T13:21:37.234Z,93618.78
2023-01-25T13:23:44.255Z,93618.25
2023-01-25T13:25:18.719Z,93622.47
2023-01-25T13:26:50.750Z,93623.78
2023-01-25T13:28:42.256Z,93629.91
2023-01-25T13:30:17.572Z,93624.81
2023-01-25T13:31:53.616Z,93631.72
2023-01-25T13:33:36.017Z,93635.41
2023-01-25T13:35:11.727Z,93634.25
2023-01-25T13:36:43.864Z,93639.00
2023-01-25T13:38:18.632Z,93634.66
2023-01-25T13:40:06.783Z,93645.00
2023-01-25T13:41:41.896Z,93633.06
2023-01-25T13:43:18.116Z,93630.88
2023-01-25T13:44:51.724Z,93633.31
2023-01-25T13:46:23.612Z,93628.47
2023-01-25T13:48:14.014Z,93620.47
2023-01-25T13:49:48.760Z,93625.47
2023-01-25T13:51:20.453Z,93621.91
2023-01-25T13:53:02.529Z,93614.13
2023-01-25T13:54:34.151Z,93615.19
2023-01-25T13:56:05.780Z,93616.25
2023-01-25T13:57:37.444Z,93614.13
2023-01-25T13:59:27.804Z,93616.25
2023-01-25T14:01:28.614Z,93600.19
2023-01-25T14:03:00.278Z,93604.97
2023-01-25T14:04:32.118Z,93589.47
2023-01-25T14:06:04.520Z,93594.31
2023-01-25T14:07:37.365Z,93585.78
2023-01-25T14:09:20.817Z,93588.94
2023-01-25T14:10:52.602Z,93574.00
2023-01-25T14:12:40.354Z,93569.41
2023-01-25T14:14:19.299Z,93577.84
2023-01-25T14:15:53.724Z,93575.13
2023-01-25T14:17:25.481Z,93574.28
2023-01-25T14:18:58.474Z,93573.47
2023-01-25T14:20:30.549Z,93570.50
2023-01-25T14:22:19.281Z,93566.47
2023-01-25T14:23:52.475Z,93573.41
2023-01-25T14:25:25.944Z,93570.19
2023-01-25T14:26:57.565Z,93577.88
2023-01-25T14:28:32.219Z,93572.03
2023-01-25T14:30:04.239Z,93575.78
2023-01-25T14:31:36.539Z,93580.28
2023-01-25T14:33:30.248Z,93571.78
2023-01-25T14:35:22.761Z,93571.06
2023-01-25T14:37:27.082Z,93569.78
2023-01-25T14:38:58.894Z,93570.34
2023-01-25T14:40:30.615Z,93566.31
2023-01-25T14:42:02.317Z,93570.56
2023-01-25T14:43:34.258Z,93573.97
2023-01-25T14:45:06.178Z,93575.81
2023-01-25T14:46:38.129Z,93582.44
2023-01-25T14:48:28.109Z,93582.94
2023-01-25T14:50:18.855Z,93586.91
2023-01-25T14:52:06.041Z,93581.59
2023-01-25T14:53:38.712Z,93585.28
2023-01-25T14:55:10.439Z,93595.44
2023-01-25T14:56:46.289Z,93593.63
2023-01-25T14:58:18.954Z,93591.78
2023-01-25T14:59:51.340Z,93600.00
2023-01-25T15:01:33.236Z,93598.63
2023-01-25T15:03:06.402Z,93596.78
2023-01-25T15:04:38.087Z,93600.81
2023-01-25T15:06:10.181Z,93605.63
2023-01-25T15:07:41.971Z,93608.34
2023-01-25T15:09:52.150Z,93603.88
2023-01-25T15:11:38.801Z,93603.69
2023-01-25T15:13:14.800Z,93602.63
2023-01-25T15:14:50.842Z,93602.13
2023-01-25T15:16:32.654Z,93610.69
2023-01-25T15:18:04.472Z,93610.09
2023-01-25T15:19:36.218Z,93612.19
2023-01-25T15:21:11.206Z,93616.13
2023-01-25T15:22:42.990Z,93613.47
2023-01-25T15:24:14.759Z,93614.84
2023-01-25T15:25:50.428Z,93612.75
2023-01-25T15:27:22.249Z,93610.59
2023-01-25T15:28:58.017Z,93608.19
2023-01-25T15:30:29.628Z,93612.19
2023-01-25T15:32:01.373Z,93606.63
2023-01-25T15:33:33.183Z,93610.59
2023-01-25T15:35:05.074Z,93607.94
2023-01-25T15:36:36.704Z,93606.34
2023-01-25T15:38:09.335Z,93603.09
2023-01-25T15:39:40.946Z,93595.00
2023-01-25T15:41:15.338Z,93597.88
2023-01-25T15:42:46.923Z,93595.97
2023-01-25T15:44:20.382Z,93596.53
2023-01-25T15:45:52.336Z,93587.47
2023-01-25T15:47:23.909Z,93589.75
2023-01-25T15:48:55.496Z,93589.69
2023-01-25T15:50:26.983Z,93587.53
2023-01-25T15:51:58.962Z,93585.63
2023-01-25T15:53:30.833Z,93591.19
2023-01-25T15:55:02.611Z,93587.72
2023-01-25T15:56:38.223Z,93585.63
2023-01-25T15:58:11.134Z,93588.81
2023-01-25T15:59:42.727Z,93586.13
2023-01-25T16:01:14.323Z,93583.69
2023-01-25T16:02:45.987Z,93594.34
2023-01-25T16:04:17.948Z,93597.31
2023-01-25T16:05:51.699Z,93597.84
2023-01-25T16:07:25.038Z,93596.56
2023-01-25T16:08:58.969Z,93595.25
2023-01-25T16:10:31.202Z,93593.16
2023-01-25T16:12:03.068Z,93600.81
2023-01-25T16:13:34.970Z,93594.13
2023-01-25T16:15:07.348Z,93594.13
2023-01-25T16:16:44.062Z,93594.13
2023-01-25T16:18:15.967Z,93592.28
2023-01-25T16:19:48.390Z,93597.13
2023-01-25T16:21:20.465Z,93599.28
2023-01-25T16:22:52.338Z,93590.25
2023-01-25T16:24:24.542Z,93588.66
2023-01-25T16:25:56.598Z,93595.25
2023-01-25T16:27:35.957Z,93598.66
2023-01-25T16:29:08.659Z,93595.72
2023-01-25T16:30:41.543Z,93588.09
2023-01-25T16:32:13.267Z,93588.25
2023-01-25T16:33:45.067Z,93585.00
2023-01-25T16:35:16.751Z,93576.97
2023-01-25T16:36:51.051Z,93578.75
2023-01-25T16:38:22.631Z,93580.78
2023-01-25T16:39:54.222Z,93578.03
2023-01-25T16:41:25.793Z,93582.22
2023-01-25T16:42:57.788Z,93577.09
2023-01-25T16:44:29.391Z,93578.91
2023-01-25T16:46:00.981Z,93576.16
2023-01-25T16:47:32.601Z,93576.81
2023-01-25T16:49:10.599Z,93569.75
2023-01-25T16:50:42.992Z,93568.84
2023-01-25T16:52:14.653Z,93570.53
2023-01-25T16:53:46.337Z,93565.41
2023-01-25T16:55:18.554Z,93571.66
2023-01-25T16:56:50.544Z,93568.94
2023-01-25T16:58:22.277Z,93575.88
2023-01-25T16:59:54.034Z,93581.19
2023-01-25T17:01:25.800Z,93583.97
2023-01-25T17:02:59.411Z,93588.16
2023-01-25T17:04:31.152Z,93585.28
2023-01-25T17:06:02.962Z,93586.31
2023-01-25T17:07:34.630Z,93587.44
2023-01-25T17:09:21.696Z,93588.00
2023-01-25T17:10:57.772Z,93587.06
2023-01-25T17:12:29.343Z,93576.97
2023-01-25T17:14:00.995Z,93588.41
2023-01-25T17:15:34.033Z,93576.50
2023-01-25T17:17:06.136Z,93575.22
2023-01-25T17:18:37.731Z,93575.56
2023-01-25T17:20:09.920Z,93560.69
2023-01-25T17:21:41.902Z,93565.41
2023-01-25T17:23:13.601Z,93562.66
2023-01-25T17:24:45.591Z,93551.75
2023-01-25T17:26:17.617Z,93552.22
2023-01-25T17:27:49.521Z,93547.41
2023-01-25T17:29:22.162Z,93547.06
2023-01-25T17:30:54.563Z,93533.16
2023-01-25T17:32:27.165Z,93537.59
2023-01-25T17:34:00.542Z,93541.06
2023-01-25T17:35:35.307Z,93542.81
2023-01-25T17:37:06.954Z,93544.59
2023-01-25T17:38:38.649Z,93553.06
2023-01-25T17:40:10.988Z,93547.22
2023-01-25T17:41:46.278Z,93541.34
2023-01-25T17:43:17.960Z,93547.69
2023-01-25T17:44:50.096Z,93548.28
2023-01-25T17:46:22.387Z,93551.16
2023-01-25T17:47:54.005Z,93553.47
2023-01-25T17:49:26.617Z,93552.44
2023-01-25T17:51:01.795Z,93551.88
2023-01-25T17:52:33.357Z,93563.75
2023-01-25T17:54:04.973Z,93558.94
2023-01-25T17:55:39.353Z,93559.75
2023-01-25T17:57:10.945Z,93568.81
2023-01-25T17:58:43.029Z,93562.47
2023-01-25T18:00:14.973Z,93557.97
2023-01-25T18:01:46.615Z,93557.16
2023-01-25T18:03:18.791Z,93552.59
2023-01-25T18:04:50.900Z,93546.38
2023-01-25T18:06:25.068Z,93540.44
2023-01-25T18:07:56.847Z,93538.72
2023-01-25T18:09:29.179Z,93541.28
2023-01-25T18:11:00.772Z,93547.53
2023-01-25T18:12:32.559Z,93546.41
2023-01-25T18:14:08.120Z,93542.63
2023-01-25T18:15:39.749Z,93540.94
2023-01-25T18:17:11.888Z,93535.06
2023-01-25T18:18:43.830Z,93536.31
2023-01-25T18:20:15.516Z,93537.34
2023-01-25T18:21:48.402Z,93536.31
2023-01-25T18:23:20.036Z,93539.22
2023-01-25T18:24:51.596Z,93550.25
2023-01-25T18:26:37.248Z,93549.16
2023-01-25T18:28:10.383Z,93541.88
2023-01-25T18:29:55.319Z,93552.72
2023-01-25T18:31:27.602Z,93548.00
2023-01-25T18:32:59.755Z,93546.97
2023-01-25T18:34:40.585Z,93547.19
2023-01-25T18:36:14.456Z,93539.16
2023-01-25T18:37:46.820Z,93541.47
2023-01-25T18:39:18.360Z,93542.50
2023-01-25T18:40:49.985Z,93551.25